Time;durP1;ratioP1;P1;durP2;ratioP2;P2;SDS_P1;SDS_P2;PMS_P1;PMS_P2;Temp;Humidity;BMP_temperature;BMP_pressure;BME280_temperature;BME280_humidity;BME280_pressure;Samples;Min_cycle;Max_cycle;Signal;HPM_P1;HPM_P2
2020/12/08 00:00:34;;;;;;;21.50;11.70;;;1.50;96.20;;;;;;5027781;28;20072;-68
2020/12/08 00:03:00;;;;;;;18.77;10.95;;;1.40;96.30;;;;;;5027982;28;20441;-69
2020/12/08 00:05:27;;;;;;;17.90;9.90;;;1.40;96.30;;;;;;5028892;28;20052;-68
2020/12/08 00:07:53;;;;;;;20.75;11.55;;;1.40;96.60;;;;;;5028256;28;20120;-67
2020/12/08 00:10:19;;;;;;;22.00;12.80;;;1.40;96.70;;;;;;5028306;28;20127;-68
2020/12/08 00:12:47;;;;;;;20.17;12.55;;;1.40;96.70;;;;;;5028586;28;20510;-68
2020/12/08 00:15:14;;;;;;;22.27;11.88;;;1.50;96.80;;;;;;5028530;28;20050;-68
2020/12/08 00:17:41;;;;;;;20.33;11.35;;;1.40;96.40;;;;;;5028096;28;20510;-68
2020/12/08 00:20:08;;;;;;;21.33;12.38;;;1.50;96.70;;;;;;5028869;28;20144;-69
2020/12/08 00:22:35;;;;;;;22.15;12.02;;;1.50;96.60;;;;;;5028760;28;20050;-68
2020/12/08 00:25:04;;;;;;;22.17;11.57;;;1.50;96.50;;;;;;5027212;28;20046;-69
2020/12/08 00:27:30;;;;;;;20.15;11.73;;;1.40;96.50;;;;;;5026912;28;20121;-68
2020/12/08 00:29:57;;;;;;;23.42;13.82;;;1.40;96.60;;;;;;5028498;28;20475;-68
2020/12/08 00:32:24;;;;;;;23.83;11.23;;;1.40;96.80;;;;;;5027911;28;20483;-68
2020/12/08 00:34:52;;;;;;;19.73;11.32;;;1.40;96.60;;;;;;5028787;28;20052;-68
2020/12/08 00:37:19;;;;;;;18.83;10.88;;;1.40;96.70;;;;;;5028355;28;20041;-68
2020/12/08 00:39:45;;;;;;;23.35;12.18;;;1.40;96.70;;;;;;5027251;28;20077;-68
2020/12/08 00:42:13;;;;;;;22.42;12.40;;;1.50;96.80;;;;;;5028467;28;20073;-68
2020/12/08 00:44:39;;;;;;;20.73;13.02;;;1.50;96.60;;;;;;5028456;28;20077;-68
2020/12/08 00:47:05;;;;;;;22.25;12.30;;;1.60;96.40;;;;;;5027754;28;20045;-68
2020/12/08 00:49:32;;;;;;;21.63;12.30;;;1.50;96.40;;;;;;5028782;28;20068;-68
2020/12/08 00:51:59;;;;;;;24.65;12.57;;;1.50;96.60;;;;;;5028050;28;20107;-68
2020/12/08 00:54:25;;;;;;;19.60;11.25;;;1.50;96.50;;;;;;5026621;28;20058;-69
2020/12/08 00:56:51;;;;;;;23.85;12.80;;;1.50;96.40;;;;;;5026490;28;20084;-69
2020/12/08 00:59:18;;;;;;;25.95;13.00;;;1.50;96.60;;;;;;5025942;28;20149;-69
2020/12/08 01:01:45;;;;;;;18.42;10.50;;;1.50;96.60;;;;;;5023771;28;20223;-69
2020/12/08 01:04:12;;;;;;;21.00;11.82;;;1.50;96.40;;;;;;5028321;28;20054;-69
2020/12/08 01:06:39;;;;;;;21.55;12.27;;;1.60;96.40;;;;;;5028086;28;20092;-69
2020/12/08 01:09:07;;;;;;;19.40;11.82;;;1.50;96.30;;;;;;5024895;28;20225;-69
2020/12/08 01:11:41;;;;;;;21.73;11.77;;;1.40;96.60;;;;;;5026530;28;20129;-69
2020/12/08 01:14:12;;;;;;;23.23;12.63;;;1.40;96.40;;;;;;5028239;28;20057;-69
2020/12/08 01:16:40;;;;;;;20.63;11.65;;;1.50;96.40;;;;;;5028056;28;20462;-69
2020/12/08 01:19:06;;;;;;;21.85;11.95;;;1.50;96.40;;;;;;5027678;28;20037;-69
2020/12/08 01:21:33;;;;;;;23.05;12.43;;;1.50;96.20;;;;;;5027728;28;20124;-69
2020/12/08 01:23:59;;;;;;;18.27;10.68;;;1.60;96.20;;;;;;5026004;28;20046;-69
2020/12/08 01:26:27;;;;;;;21.70;12.13;;;1.60;96.10;;;;;;5027368;28;20049;-68
2020/12/08 01:28:53;;;;;;;20.27;12.02;;;1.70;96.30;;;;;;5026244;28;20477;-69
2020/12/08 01:31:20;;;;;;;17.45;10.95;;;1.70;95.90;;;;;;5028633;28;20107;-68
2020/12/08 01:33:46;;;;;;;19.58;10.30;;;1.70;95.90;;;;;;5027613;28;20137;-69
2020/12/08 01:36:16;;;;;;;18.50;10.43;;;1.80;95.90;;;;;;5027035;28;20045;-69
2020/12/08 01:38:43;;;;;;;18.15;11.13;;;1.70;95.90;;;;;;5028314;28;20135;-69
2020/12/08 01:41:09;;;;;;;18.55;10.90;;;1.60;95.90;;;;;;5030749;28;20049;-69
2020/12/08 01:43:51;;;;;;;22.38;12.93;;;1.50;96.00;;;;;;5032194;28;20049;-69
2020/12/08 01:46:20;;;;;;;23.40;13.95;;;1.50;96.10;;;;;;5029039;28;20135;-69
2020/12/08 01:48:47;;;;;;;23.83;12.88;;;1.40;96.20;;;;;;5031492;28;20103;-68
2020/12/08 01:51:16;;;;;;;20.77;11.88;;;1.30;96.30;;;;;;5030308;28;20124;-70
2020/12/08 01:53:44;;;;;;;19.63;11.68;;;1.30;96.60;;;;;;5031262;28;20128;-69
2020/12/08 01:56:12;;;;;;;19.02;10.75;;;1.30;96.30;;;;;;5026916;28;20474;-69
2020/12/08 01:58:38;;;;;;;23.70;12.05;;;1.30;96.30;;;;;;5022226;28;20100;-69
2020/12/08 02:01:05;;;;;;;23.42;13.77;;;1.10;96.40;;;;;;5031849;28;20508;-69
2020/12/08 02:03:32;;;;;;;21.05;11.25;;;1.00;97.00;;;;;;5030971;28;20516;-69
2020/12/08 02:05:58;;;;;;;23.90;13.68;;;1.00;96.90;;;;;;5029488;28;20164;-69
2020/12/08 02:08:32;;;;;;;16.42;9.63;;;0.90;96.90;;;;;;5028052;28;20525;-69
2020/12/08 02:11:00;;;;;;;16.45;10.45;;;0.90;96.80;;;;;;5028858;28;20148;-68
2020/12/08 02:13:27;;;;;;;22.45;12.93;;;0.90;96.90;;;;;;5031442;28;20064;-69
2020/12/08 02:15:53;;;;;;;18.92;9.90;;;0.80;97.10;;;;;;5030786;28;20164;-69
2020/12/08 02:18:20;;;;;;;21.05;12.40;;;0.70;96.80;;;;;;5028793;28;20140;-68
2020/12/08 02:20:52;;;;;;;18.80;10.10;;;0.70;97.10;;;;;;5031118;28;20050;-69
2020/12/08 02:23:18;;;;;;;24.05;13.20;;;0.70;97.00;;;;;;5029874;28;20053;-68
2020/12/08 02:25:53;;;;;;;22.67;11.68;;;0.70;97.30;;;;;;5029651;28;20120;-69
2020/12/08 02:28:20;;;;;;;22.55;11.45;;;0.80;97.00;;;;;;5029917;28;20049;-68
2020/12/08 02:30:46;;;;;;;18.75;10.35;;;0.90;97.00;;;;;;5029874;28;20092;-68
2020/12/08 02:33:13;;;;;;;17.08;10.85;;;1.00;97.00;;;;;;5030505;28;20073;-69
2020/12/08 02:35:39;;;;;;;21.15;11.98;;;1.10;96.80;;;;;;5030940;28;20049;-69
2020/12/08 02:38:06;;;;;;;16.42;9.70;;;1.20;96.50;;;;;;5028423;28;20514;-69
2020/12/08 02:40:32;;;;;;;25.40;14.65;;;1.20;96.40;;;;;;5030087;28;20529;-69
2020/12/08 02:42:58;;;;;;;21.15;12.50;;;1.20;96.30;;;;;;5030940;28;20507;-69
2020/12/08 02:45:25;;;;;;;23.50;13.10;;;1.20;96.40;;;;;;5030203;28;20045;-69
2020/12/08 02:47:51;;;;;;;24.63;13.85;;;1.20;96.30;;;;;;5028840;28;20116;-69
2020/12/08 02:50:18;;;;;;;25.45;13.75;;;1.10;96.70;;;;;;5029728;28;20092;-69
2020/12/08 02:52:44;;;;;;;21.23;12.60;;;1.10;96.90;;;;;;5011789;28;20045;-68
2020/12/08 02:55:10;;;;;;;22.80;12.85;;;1.10;97.00;;;;;;5029289;28;20479;-69
2020/12/08 02:57:37;;;;;;;20.25;11.88;;;1.20;96.90;;;;;;5029067;28;20490;-69
2020/12/08 03:00:05;;;;;;;16.25;9.65;;;1.20;96.80;;;;;;5029787;28;20510;-69
2020/12/08 03:02:31;;;;;;;23.38;13.68;;;1.30;96.80;;;;;;5030490;28;20139;-69
2020/12/08 03:04:58;;;;;;;21.27;12.10;;;1.30;96.50;;;;;;5027908;28;20053;-69
2020/12/08 03:07:25;;;;;;;24.65;13.07;;;1.30;96.80;;;;;;5029212;28;20489;-69
2020/12/08 03:09:51;;;;;;;19.17;11.00;;;1.40;96.50;;;;;;5028501;28;20474;-68
2020/12/08 03:12:17;;;;;;;22.25;13.20;;;1.40;96.40;;;;;;5028378;28;20120;-68
2020/12/08 03:14:44;;;;;;;24.45;11.98;;;1.30;96.30;;;;;;5028712;28;20049;-69
2020/12/08 03:17:10;;;;;;;22.10;12.52;;;1.30;96.50;;;;;;5028873;28;20128;-69
2020/12/08 03:19:37;;;;;;;19.85;11.73;;;1.20;96.70;;;;;;5029186;28;20133;-69
2020/12/08 03:22:05;;;;;;;25.00;13.70;;;1.10;97.00;;;;;;5029043;28;20112;-69
2020/12/08 03:24:32;;;;;;;18.42;10.90;;;1.10;97.00;;;;;;5028679;28;20050;-69
2020/12/08 03:26:58;;;;;;;18.52;10.77;;;1.10;97.20;;;;;;5027643;28;20132;-69
2020/12/08 03:29:25;;;;;;;16.25;9.98;;;1.20;96.90;;;;;;5028713;28;20164;-69
2020/12/08 03:31:51;;;;;;;16.13;9.43;;;1.30;96.90;;;;;;5028507;28;20042;-69
2020/12/08 03:34:17;;;;;;;20.98;11.43;;;1.40;96.60;;;;;;5029089;28;20491;-68
2020/12/08 03:36:44;;;;;;;16.67;9.85;;;1.50;96.30;;;;;;5044711;28;20049;-68
2020/12/08 03:39:11;;;;;;;15.05;9.00;;;1.60;96.10;;;;;;5029193;28;20128;-69
2020/12/08 03:41:37;;;;;;;14.70;9.40;;;1.60;96.10;;;;;;5029149;28;20168;-68
2020/12/08 03:44:04;;;;;;;14.05;8.90;;;1.70;96.10;;;;;;5029654;28;20072;-69
2020/12/08 03:46:30;;;;;;;19.98;11.23;;;1.80;95.70;;;;;;5028136;28;20080;-68
2020/12/08 03:48:58;;;;;;;14.52;9.48;;;1.80;95.60;;;;;;5026730;28;20058;-69
2020/12/08 03:51:24;;;;;;;15.90;9.73;;;1.80;95.60;;;;;;5023937;28;20045;-68
2020/12/08 03:53:50;;;;;;;20.08;10.73;;;1.80;95.40;;;;;;5028192;28;20212;-69
2020/12/08 03:56:18;;;;;;;22.48;12.50;;;1.70;95.60;;;;;;5028447;28;20136;-68
2020/12/08 03:58:46;;;;;;;21.42;12.68;;;1.60;95.80;;;;;;5027634;28;20167;-68
2020/12/08 04:01:22;;;;;;;19.48;11.18;;;1.60;96.10;;;;;;5026783;28;20046;-69
2020/12/08 04:03:50;;;;;;;26.17;13.27;;;1.60;96.00;;;;;;5011687;28;20391;-69
2020/12/08 04:06:18;;;;;;;23.73;12.70;;;1.50;96.30;;;;;;5028115;28;20059;-69
2020/12/08 04:08:46;;;;;;;25.75;12.32;;;1.50;96.40;;;;;;5028581;28;20124;-68
2020/12/08 04:11:14;;;;;;;21.80;11.75;;;1.50;96.50;;;;;;5028581;28;20167;-69
2020/12/08 04:13:42;;;;;;;23.33;13.32;;;1.50;96.40;;;;;;5028935;28;20470;-69
2020/12/08 04:16:13;;;;;;;18.13;11.35;;;1.50;96.30;;;;;;5028461;28;20136;-69
2020/12/08 04:18:40;;;;;;;18.83;11.38;;;1.40;96.40;;;;;;5027700;28;20128;-69
2020/12/08 04:21:07;;;;;;;21.30;12.38;;;1.40;96.50;;;;;;5028163;28;20081;-69
2020/12/08 04:23:33;;;;;;;23.70;14.32;;;1.40;96.50;;;;;;5028718;28;20123;-69
2020/12/08 04:26:00;;;;;;;22.33;12.65;;;1.30;96.80;;;;;;5028557;28;20065;-71
2020/12/08 04:28:26;;;;;;;22.10;13.13;;;1.30;96.80;;;;;;5028215;28;20080;-69
2020/12/08 04:30:53;;;;;;;20.77;11.85;;;1.30;96.70;;;;;;5029461;28;20124;-69
2020/12/08 04:33:19;;;;;;;24.90;14.70;;;1.40;96.70;;;;;;5028695;28;20085;-69
2020/12/08 04:35:46;;;;;;;23.08;12.32;;;1.40;96.50;;;;;;5027920;28;20515;-69
2020/12/08 04:38:12;;;;;;;25.52;12.40;;;1.30;96.80;;;;;;5028157;28;20585;-69
2020/12/08 04:40:38;;;;;;;26.45;14.95;;;1.40;96.70;;;;;;5028197;28;20136;-69
2020/12/08 04:43:06;;;;;;;28.52;15.65;;;1.40;96.60;;;;;;5028030;28;20049;-68
2020/12/08 04:45:32;;;;;;;24.20;14.20;;;1.30;96.70;;;;;;5027547;28;20414;-69
2020/12/08 04:48:05;;;;;;;32.08;17.35;;;1.30;96.80;;;;;;5028302;28;20125;-69
2020/12/08 04:50:32;;;;;;;25.75;13.55;;;1.30;97.20;;;;;;5021791;28;20057;-69
2020/12/08 04:53:02;;;;;;;25.88;14.98;;;1.30;96.90;;;;;;5028452;28;20095;-69
2020/12/08 04:55:28;;;;;;;19.42;12.25;;;1.40;96.90;;;;;;5026773;28;20301;-68
2020/12/08 04:57:55;;;;;;;26.63;15.80;;;1.50;96.70;;;;;;5028841;28;20132;-69
2020/12/08 05:00:22;;;;;;;22.50;13.40;;;1.50;96.60;;;;;;5026603;28;20475;-69
2020/12/08 05:02:49;;;;;;;24.85;14.88;;;1.50;96.50;;;;;;5029056;28;20119;-69
2020/12/08 05:05:17;;;;;;;30.02;16.15;;;1.50;96.40;;;;;;5026295;28;20099;-69
2020/12/08 05:07:44;;;;;;;33.63;18.45;;;1.50;96.50;;;;;;5028565;28;20697;-69
2020/12/08 05:10:11;;;;;;;24.27;15.63;;;1.40;96.80;;;;;;5026494;28;20087;-69
2020/12/08 05:12:37;;;;;;;23.45;15.23;;;1.50;96.80;;;;;;5028308;28;20049;-69
2020/12/08 05:15:13;;;;;;;26.98;16.48;;;1.50;96.60;;;;;;5032519;28;20057;-69
2020/12/08 05:17:40;;;;;;;27.33;16.30;;;1.60;96.40;;;;;;5027040;28;20136;-69
2020/12/08 05:20:09;;;;;;;27.40;16.40;;;1.70;96.40;;;;;;5030336;28;20041;-69
2020/12/08 05:22:36;;;;;;;31.95;18.75;;;1.70;96.20;;;;;;5032690;28;20089;-69
2020/12/08 05:25:13;;;;;;;29.65;17.38;;;1.60;96.20;;;;;;5030122;28;20042;-69
2020/12/08 05:27:43;;;;;;;30.77;18.52;;;1.70;96.20;;;;;;5027269;28;20067;-68
2020/12/08 05:30:11;;;;;;;27.27;16.10;;;1.70;96.30;;;;;;5031667;28;20158;-69
2020/12/08 05:32:39;;;;;;;30.05;18.00;;;1.70;96.30;;;;;;5031096;28;20103;-69
2020/12/08 05:35:08;;;;;;;30.15;16.27;;;1.70;96.10;;;;;;5029202;28;20471;-69
2020/12/08 05:37:42;;;;;;;30.45;17.17;;;1.70;96.20;;;;;;5031149;28;20124;-69
2020/12/08 05:40:20;;;;;;;28.48;17.73;;;1.70;96.20;;;;;;5029841;28;20045;-69
2020/12/08 05:42:48;;;;;;;27.63;16.88;;;1.70;96.20;;;;;;5031914;28;20124;-69
2020/12/08 05:45:17;;;;;;;32.30;18.58;;;1.80;96.20;;;;;;5030116;28;20049;-68
2020/12/08 05:47:47;;;;;;;29.17;17.60;;;1.70;96.10;;;;;;5030633;28;20053;-69
2020/12/08 05:50:14;;;;;;;28.77;17.85;;;1.70;96.10;;;;;;5029784;28;20124;-69
2020/12/08 05:52:50;;;;;;;30.73;17.58;;;1.70;96.20;;;;;;5031016;28;20123;-69
2020/12/08 05:55:19;;;;;;;29.13;16.67;;;1.70;96.40;;;;;;5025075;28;20073;-69
2020/12/08 05:57:47;;;;;;;28.48;17.15;;;1.70;96.30;;;;;;5029164;28;20144;-69
2020/12/08 06:00:23;;;;;;;29.48;17.52;;;1.70;96.40;;;;;;5031401;28;20072;-75
2020/12/08 06:02:50;;;;;;;33.17;19.85;;;1.70;96.40;;;;;;5030524;28;20056;-75
2020/12/08 06:05:28;;;;;;;31.58;18.27;;;1.70;96.40;;;;;;5031238;28;20204;-75
2020/12/08 06:07:54;;;;;;;28.63;16.70;;;1.60;96.50;;;;;;5027983;28;20053;-75
2020/12/08 06:10:21;;;;;;;28.88;17.38;;;1.70;96.50;;;;;;5026517;28;20580;-75
2020/12/08 06:12:56;;;;;;;27.85;17.88;;;1.70;96.40;;;;;;5029777;28;20083;-75
2020/12/08 06:15:25;;;;;;;29.95;18.05;;;1.70;96.50;;;;;;5029338;28;20300;-75
2020/12/08 06:17:51;;;;;;;29.40;18.33;;;1.70;96.50;;;;;;5030759;28;20123;-75
2020/12/08 06:20:19;;;;;;;34.13;19.02;;;1.70;96.90;;;;;;5028687;28;20506;-75
2020/12/08 06:22:58;;;;;;;32.10;19.50;;;1.70;96.50;;;;;;5028632;28;20465;-74
2020/12/08 06:25:26;;;;;;;30.50;18.40;;;1.70;96.60;;;;;;5029651;28;20128;-75
2020/12/08 06:27:58;;;;;;;33.72;19.45;;;1.70;96.70;;;;;;5015606;28;20038;-74
2020/12/08 06:30:25;;;;;;;30.45;17.92;;;1.70;96.70;;;;;;5030632;28;20049;-75
2020/12/08 06:32:56;;;;;;;33.65;17.67;;;1.70;96.80;;;;;;5031019;28;20049;-74
2020/12/08 06:35:23;;;;;;;31.80;19.27;;;1.70;96.50;;;;;;5031116;28;20056;-75
2020/12/08 06:37:53;;;;;;;42.67;23.33;;;1.70;96.70;;;;;;5030337;28;20095;-75
2020/12/08 06:40:23;;;;;;;38.40;21.10;;;1.60;96.70;;;;;;5030107;28;20152;-75
2020/12/08 06:42:51;;;;;;;38.00;20.88;;;1.60;96.90;;;;;;5030815;28;20077;-75
2020/12/08 06:45:23;;;;;;;36.90;20.52;;;1.50;97.10;;;;;;5028877;28;20052;-75
2020/12/08 06:47:51;;;;;;;37.38;21.38;;;1.60;97.20;;;;;;5029132;28;20500;-75
2020/12/08 06:50:27;;;;;;;32.30;19.40;;;1.60;97.00;;;;;;5029662;28;20073;-74
2020/12/08 06:53:02;;;;;;;34.42;19.38;;;1.70;97.10;;;;;;5030392;28;20459;-75
2020/12/08 06:55:41;;;;;;;33.42;18.00;;;1.70;96.80;;;;;;5028997;28;20053;-75
2020/12/08 06:58:07;;;;;;;40.25;22.08;;;1.80;96.60;;;;;;5026016;28;20129;-75
2020/12/08 07:00:34;;;;;;;39.47;23.45;;;1.80;96.20;;;;;;5015582;28;20136;-75
2020/12/08 07:03:02;;;;;;;32.97;18.58;;;1.80;96.20;;;;;;5013890;28;20111;-75
2020/12/08 07:05:31;;;;;;;36.85;21.00;;;1.80;96.30;;;;;;5024616;28;20041;-74
2020/12/08 07:07:59;;;;;;;32.35;19.35;;;1.90;96.00;;;;;;5027299;28;20057;-75
2020/12/08 07:10:26;;;;;;;35.05;20.55;;;1.90;95.80;;;;;;5029356;28;20041;-75
2020/12/08 07:12:53;;;;;;;33.97;19.48;;;1.90;96.00;;;;;;5029852;28;20517;-74
2020/12/08 07:15:23;;;;;;;35.83;19.50;;;2.00;96.00;;;;;;5029821;28;20091;-75
2020/12/08 07:17:57;;;;;;;33.42;19.65;;;1.90;95.90;;;;;;5027342;28;20105;-75
2020/12/08 07:20:26;;;;;;;31.70;19.60;;;2.00;95.80;;;;;;5029250;28;20134;-75
2020/12/08 07:22:54;;;;;;;32.85;19.40;;;2.00;95.80;;;;;;5028838;28;20133;-75
2020/12/08 07:25:22;;;;;;;34.88;19.35;;;2.00;95.90;;;;;;5029657;28;20095;-75
2020/12/08 07:27:51;;;;;;;32.90;18.95;;;2.00;96.20;;;;;;5029296;28;20084;-75
2020/12/08 07:30:22;;;;;;;31.00;18.52;;;2.00;95.90;;;;;;5028977;28;20069;-75
2020/12/08 07:32:48;;;;;;;31.20;19.05;;;1.90;96.00;;;;;;5028901;28;20491;-75
2020/12/08 07:35:19;;;;;;;38.05;21.45;;;1.90;96.00;;;;;;5029666;28;20148;-75
2020/12/08 07:37:45;;;;;;;32.00;18.48;;;1.90;96.10;;;;;;5027883;28;20072;-75
2020/12/08 07:40:12;;;;;;;32.00;19.65;;;1.90;96.30;;;;;;5028754;28;20081;-75
2020/12/08 07:42:45;;;;;;;31.23;18.05;;;1.90;96.30;;;;;;5029272;28;20053;-75
2020/12/08 07:45:12;;;;;;;31.05;17.92;;;1.90;96.20;;;;;;5043979;28;20041;-75
2020/12/08 07:47:38;;;;;;;29.10;17.25;;;2.00;96.40;;;;;;5028968;28;20608;-74
2020/12/08 07:50:05;;;;;;;39.63;21.60;;;2.10;96.00;;;;;;5028629;28;20037;-75
2020/12/08 07:52:32;;;;;;;34.30;19.25;;;2.00;95.60;;;;;;5029266;28;20471;-75
2020/12/08 07:54:59;;;;;;;36.50;21.30;;;2.00;95.90;;;;;;5028515;28;20049;-75
2020/12/08 07:57:25;;;;;;;35.25;19.42;;;2.10;95.80;;;;;;5028456;28;20077;-75
2020/12/08 07:59:52;;;;;;;32.65;19.73;;;2.10;95.70;;;;;;5028581;28;20046;-76
2020/12/08 08:02:18;;;;;;;31.27;18.83;;;2.20;95.70;;;;;;5028664;28;20099;-75
2020/12/08 08:04:45;;;;;;;40.65;22.77;;;2.20;95.70;;;;;;5028795;28;20136;-75
2020/12/08 08:07:11;;;;;;;45.25;24.17;;;2.10;95.60;;;;;;5028889;28;20128;-75
2020/12/08 08:09:38;;;;;;;42.65;23.80;;;2.00;95.90;;;;;;5028405;28;20138;-76
2020/12/08 08:12:05;;;;;;;34.38;20.00;;;1.90;96.00;;;;;;5027138;28;20061;-77
2020/12/08 08:14:31;;;;;;;33.65;19.33;;;2.10;96.10;;;;;;5028310;28;20049;-75
2020/12/08 08:17:05;;;;;;;33.45;20.15;;;2.20;95.80;;;;;;5028953;28;20596;-75
2020/12/08 08:19:32;;;;;;;38.05;20.73;;;2.20;95.70;;;;;;5028909;28;20045;-75
2020/12/08 08:22:01;;;;;;;35.17;19.95;;;2.30;95.60;;;;;;5028223;28;20452;-75
2020/12/08 08:24:27;;;;;;;37.40;21.70;;;2.40;95.70;;;;;;5027609;28;20050;-75
2020/12/08 08:26:53;;;;;;;33.95;21.00;;;2.50;95.10;;;;;;5027418;28;20501;-76
2020/12/08 08:29:21;;;;;;;35.53;20.48;;;2.60;94.70;;;;;;5021062;28;20578;-75
2020/12/08 08:31:48;;;;;;;35.00;21.17;;;2.60;94.50;;;;;;5013469;28;20073;-75
2020/12/08 08:34:14;;;;;;;30.90;19.50;;;2.60;94.80;;;;;;5011653;28;20462;-75
2020/12/08 08:36:54;;;;;;;32.30;19.33;;;2.70;94.60;;;;;;5025158;28;20451;-75
2020/12/08 08:39:22;;;;;;;31.88;19.60;;;2.60;94.60;;;;;;5025725;28;20050;-75
2020/12/08 08:41:50;;;;;;;34.42;20.08;;;2.70;94.60;;;;;;5027333;28;20224;-75
2020/12/08 08:44:16;;;;;;;33.45;20.85;;;2.70;94.50;;;;;;5020114;28;20377;-75
2020/12/08 08:46:43;;;;;;;35.92;21.02;;;2.70;94.50;;;;;;5027559;28;20045;-75
2020/12/08 08:49:19;;;;;;;33.70;19.45;;;2.80;94.40;;;;;;5029875;28;20421;-75
2020/12/08 08:51:47;;;;;;;35.97;21.20;;;2.80;94.30;;;;;;5031508;28;20134;-75
2020/12/08 08:54:16;;;;;;;36.00;20.85;;;2.80;94.40;;;;;;5031227;28;20045;-75
2020/12/08 08:56:43;;;;;;;33.63;20.10;;;2.80;94.40;;;;;;5031973;28;20404;-75
2020/12/08 08:59:10;;;;;;;35.20;20.63;;;2.80;94.60;;;;;;5018542;28;20151;-75
2020/12/08 09:01:36;;;;;;;37.40;22.45;;;2.90;94.30;;;;;;5031649;28;20041;-75
2020/12/08 09:04:03;;;;;;;37.00;21.75;;;2.90;94.20;;;;;;5031741;28;20053;-75
2020/12/08 09:06:30;;;;;;;37.38;21.92;;;2.90;94.30;;;;;;5032040;28;20077;-76
2020/12/08 09:08:59;;;;;;;47.78;24.58;;;2.80;94.30;;;;;;5029977;28;20103;-75
2020/12/08 09:11:27;;;;;;;41.45;24.00;;;2.60;94.40;;;;;;5031537;28;20404;-75
2020/12/08 09:13:55;;;;;;;30.52;19.70;;;2.70;94.70;;;;;;5032545;28;20057;-74
2020/12/08 09:16:24;;;;;;;36.70;22.10;;;2.90;94.90;;;;;;5031241;28;20053;-75
2020/12/08 09:18:50;;;;;;;41.33;23.58;;;3.00;94.20;;;;;;5031868;28;20107;-75
2020/12/08 09:21:18;;;;;;;34.97;21.63;;;3.20;93.60;;;;;;5030826;28;20053;-76
2020/12/08 09:23:44;;;;;;;39.10;23.77;;;3.40;94.10;;;;;;5030948;28;20069;-75
2020/12/08 09:26:10;;;;;;;38.22;22.63;;;3.60;92.70;;;;;;5027333;28;20099;-75
2020/12/08 09:28:37;;;;;;;35.30;21.73;;;3.70;92.20;;;;;;5028094;28;20042;-75
2020/12/08 09:31:06;;;;;;;33.78;21.25;;;4.10;92.70;;;;;;5029707;28;20129;-75
2020/12/08 09:33:38;;;;;;;32.42;20.60;;;4.60;92.20;;;;;;5030006;28;20065;-75
2020/12/08 09:36:04;;;;;;;31.58;20.27;;;4.60;92.00;;;;;;5029023;28;20049;-75
2020/12/08 09:38:30;;;;;;;32.30;20.48;;;4.50;90.70;;;;;;5028204;28;20127;-75
2020/12/08 09:40:57;;;;;;;36.00;21.40;;;4.60;91.90;;;;;;5031439;28;20092;-76
2020/12/08 09:43:24;;;;;;;30.52;20.08;;;4.20;91.10;;;;;;5026299;28;20053;-76
2020/12/08 09:45:51;;;;;;;31.15;20.77;;;4.20;91.70;;;;;;5029817;28;20041;-76
2020/12/08 09:48:17;;;;;;;34.28;22.02;;;3.90;91.70;;;;;;5029245;28;20046;-75
2020/12/08 09:50:43;;;;;;;36.35;22.55;;;3.80;91.80;;;;;;5029347;28;20449;-75
2020/12/08 09:53:10;;;;;;;37.47;22.67;;;3.50;92.10;;;;;;5029168;28;20140;-75
2020/12/08 09:55:36;;;;;;;37.47;22.65;;;3.30;92.40;;;;;;5028970;28;20239;-76
2020/12/08 09:58:02;;;;;;;34.30;21.35;;;3.50;92.90;;;;;;5029741;28;20045;-75
2020/12/08 10:00:29;;;;;;;33.25;21.55;;;3.40;92.60;;;;;;5028923;28;20049;-75
2020/12/08 10:02:55;;;;;;;35.95;22.00;;;3.30;93.00;;;;;;5027555;28;20136;-76
2020/12/08 10:05:21;;;;;;;35.03;21.13;;;3.30;93.30;;;;;;5029130;28;20498;-75
2020/12/08 10:07:48;;;;;;;33.92;22.17;;;3.40;93.10;;;;;;5029722;28;20041;-75
2020/12/08 10:10:14;;;;;;;35.15;22.23;;;3.40;93.10;;;;;;5027418;28;20387;-75
2020/12/08 10:12:40;;;;;;;35.10;22.50;;;3.50;92.80;;;;;;5030378;28;20442;-76
2020/12/08 10:15:06;;;;;;;33.60;21.38;;;3.60;92.40;;;;;;5028980;28;20107;-75
2020/12/08 10:17:33;;;;;;;32.42;21.42;;;3.90;92.80;;;;;;5029447;28;20069;-75
2020/12/08 10:19:59;;;;;;;31.73;20.77;;;4.20;91.80;;;;;;5026592;28;20080;-75
2020/12/08 10:22:26;;;;;;;31.50;21.35;;;4.50;91.70;;;;;;5028568;28;20047;-75
2020/12/08 10:24:52;;;;;;;32.58;20.77;;;4.80;90.60;;;;;;5022895;28;20513;-75
2020/12/08 10:27:19;;;;;;;32.05;20.50;;;4.60;90.10;;;;;;5028693;28;20057;-75
2020/12/08 10:29:45;;;;;;;29.20;18.65;;;4.50;90.80;;;;;;5028463;28;20053;-75
2020/12/08 10:32:12;;;;;;;31.20;21.10;;;4.50;90.00;;;;;;5028454;28;20080;-76
2020/12/08 10:34:39;;;;;;;33.70;20.35;;;4.40;90.30;;;;;;5028535;28;20476;-76
2020/12/08 10:37:05;;;;;;;28.65;19.98;;;4.40;90.70;;;;;;5029282;28;20049;-75
2020/12/08 10:39:32;;;;;;;31.33;20.55;;;4.40;91.10;;;;;;5029536;28;20445;-75
2020/12/08 10:41:58;;;;;;;30.15;19.48;;;4.50;90.70;;;;;;5030356;28;20050;-76
2020/12/08 10:44:24;;;;;;;28.88;19.50;;;4.50;90.50;;;;;;5028393;28;20049;-76
2020/12/08 10:46:52;;;;;;;32.95;21.52;;;4.30;90.50;;;;;;5027460;28;20096;-76
2020/12/08 10:49:20;;;;;;;34.72;21.27;;;4.20;90.90;;;;;;5029115;28;20049;-76
2020/12/08 10:51:46;;;;;;;32.28;20.73;;;4.20;90.70;;;;;;5026926;28;20049;-76
2020/12/08 10:54:13;;;;;;;34.00;20.60;;;4.10;91.10;;;;;;5029537;28;20096;-76
2020/12/08 10:56:39;;;;;;;35.03;21.88;;;4.10;91.20;;;;;;5029306;28;20091;-74
2020/12/08 10:59:06;;;;;;;30.83;20.08;;;4.00;91.30;;;;;;5029322;28;20072;-74
2020/12/08 11:01:37;;;;;;;31.67;20.05;;;3.90;90.90;;;;;;5027548;28;20042;-75
2020/12/08 11:04:05;;;;;;;33.95;20.50;;;3.80;91.30;;;;;;5028307;28;20048;-74
2020/12/08 11:06:31;;;;;;;32.05;20.40;;;3.70;91.60;;;;;;5022367;28;20045;-74
2020/12/08 11:08:59;;;;;;;30.60;19.75;;;3.80;91.80;;;;;;5019722;28;20121;-75
2020/12/08 11:11:30;;;;;;;31.70;20.98;;;3.90;91.60;;;;;;5027254;28;20163;-74
2020/12/08 11:13:59;;;;;;;36.70;21.90;;;3.90;91.50;;;;;;5018095;28;20106;-75
2020/12/08 11:16:26;;;;;;;31.50;20.50;;;3.90;91.70;;;;;;5028267;28;20053;-74
2020/12/08 11:18:53;;;;;;;33.75;21.65;;;4.00;91.50;;;;;;5026033;28;20053;-74
2020/12/08 11:21:28;;;;;;;34.88;22.15;;;4.00;91.30;;;;;;5023033;28;20107;-75
2020/12/08 11:23:58;;;;;;;34.60;21.77;;;4.10;91.50;;;;;;5028872;28;20068;-75
2020/12/08 11:26:25;;;;;;;34.05;21.45;;;4.20;91.20;;;;;;5028955;28;20103;-74
2020/12/08 11:28:52;;;;;;;34.90;22.00;;;4.40;91.10;;;;;;5027419;28;20045;-74
2020/12/08 11:31:18;;;;;;;42.88;26.67;;;4.80;90.70;;;;;;5029365;28;20103;-74
2020/12/08 11:33:45;;;;;;;33.03;21.35;;;5.00;90.00;;;;;;5024574;28;20494;-74
2020/12/08 11:36:13;;;;;;;30.77;19.58;;;5.10;89.80;;;;;;5030011;28;20080;-75
2020/12/08 11:38:39;;;;;;;34.17;21.83;;;5.40;90.00;;;;;;5027891;28;20449;-74
2020/12/08 11:41:06;;;;;;;30.48;20.00;;;5.50;88.60;;;;;;5013241;28;20092;-74
2020/12/08 11:43:33;;;;;;;28.23;20.08;;;5.40;86.40;;;;;;5025811;28;20225;-76
2020/12/08 11:46:00;;;;;;;32.42;20.40;;;5.20;88.00;;;;;;5028456;28;20049;-74
2020/12/08 11:48:26;;;;;;;32.67;21.42;;;5.20;88.00;;;;;;5026998;28;20037;-74
2020/12/08 11:50:53;;;;;;;30.88;20.75;;;5.30;88.00;;;;;;5024876;28;20080;-74
2020/12/08 11:53:21;;;;;;;30.42;20.13;;;5.30;87.60;;;;;;5028165;28;20121;-74
2020/12/08 11:55:51;;;;;;;27.75;18.95;;;5.10;88.20;;;;;;5020496;28;20108;-73
2020/12/08 11:58:18;;;;;;;29.75;19.27;;;5.10;89.00;;;;;;5026337;28;20050;-74
2020/12/08 12:00:45;;;;;;;30.80;21.10;;;5.20;88.40;;;;;;5027861;28;20116;-75
2020/12/08 12:03:13;;;;;;;31.35;20.27;;;4.90;88.40;;;;;;5028590;28;20053;-74
2020/12/08 12:05:39;;;;;;;33.63;20.98;;;4.80;90.10;;;;;;5027974;28;20084;-74
2020/12/08 12:08:06;;;;;;;30.63;20.92;;;4.50;89.70;;;;;;5028491;28;20136;-74
2020/12/08 12:10:33;;;;;;;29.38;19.08;;;4.50;90.60;;;;;;5028087;28;20053;-74
2020/12/08 12:12:59;;;;;;;30.33;20.55;;;4.70;90.50;;;;;;5027250;28;20103;-74
2020/12/08 12:15:26;;;;;;;28.17;18.90;;;4.80;89.60;;;;;;5028390;28;20079;-74
2020/12/08 12:17:52;;;;;;;31.23;19.88;;;4.50;88.40;;;;;;5027900;28;20482;-74
2020/12/08 12:20:19;;;;;;;32.47;19.85;;;4.50;90.00;;;;;;5028375;28;20478;-74
2020/12/08 12:22:45;;;;;;;28.90;18.90;;;4.60;89.60;;;;;;5027137;28;20152;-74
2020/12/08 12:25:11;;;;;;;32.00;18.83;;;4.70;89.20;;;;;;5027891;28;20227;-74
2020/12/08 12:27:37;;;;;;;27.38;18.88;;;4.70;89.30;;;;;;5028855;28;20404;-74
2020/12/08 12:30:04;;;;;;;29.17;19.80;;;4.70;88.60;;;;;;5027975;28;20088;-74
2020/12/08 12:32:31;;;;;;;27.65;19.48;;;4.70;88.70;;;;;;5028445;28;20041;-75
2020/12/08 12:35:01;;;;;;;32.38;19.92;;;4.70;88.10;;;;;;5027509;28;20041;-75
2020/12/08 12:37:31;;;;;;;31.25;20.98;;;4.80;88.60;;;;;;5027556;28;20063;-74
2020/12/08 12:39:59;;;;;;;33.22;21.63;;;4.90;88.10;;;;;;5026353;28;20124;-73